Bonaire, Georgia
Current Conditions -  °F | °C
As of 12:58 AM on Saturday 25 Oct 2014 (Local Time) from KWRB Reporting Station
Clear Clear  
Wind Chill: 50°   Ceiling: Unl
Heat Index: 50°   Visibility: 10mi
Dew Point: 48°   Wind: 2mph
Humidity: 93%   Direction: 20°NNE
Pressure: 29.99"   Gusts: NA
Location:  32.54°N, 83.6°W
Report Text: KWRB 250458Z AUTO 02002KT 10SM CLR 10/09 A2999 RMK AO2 SLP157 T00990088 402380076
Loading
Personal Weather Stations






























Interactive Weather Map
Tropical Storm Tracking
New forecast layout! Learn more

10-Day Weather Forecast

Advertisements
Track Severe Weather on mobile